sensor_id;sensor_type;location;lat;lon;timestamp;pressure;altitude;pressure_sealevel;temperature;humidity
59767;BME280;46248;58.364;25.582;2023-09-08T00:00:03;101723.72;;;10.53;100.00
59767;BME280;46248;58.364;25.582;2023-09-08T00:03:25;101725.38;;;10.55;100.00
59767;BME280;46248;58.364;25.582;2023-09-08T00:06:47;101723.56;;;10.58;100.00
59767;BME280;46248;58.364;25.582;2023-09-08T00:10:09;101724.41;;;10.58;100.00
59767;BME280;46248;58.364;25.582;2023-09-08T00:13:33;101719.16;;;10.60;100.00
59767;BME280;46248;58.364;25.582;2023-09-08T00:16:55;101713.84;;;10.61;100.00
59767;BME280;46248;58.364;25.582;2023-09-08T00:20:18;101712.13;;;10.60;100.00
59767;BME280;46248;58.364;25.582;2023-09-08T00:23:40;101711.19;;;10.63;100.00
59767;BME280;46248;58.364;25.582;2023-09-08T00:27:01;101711.19;;;10.63;100.00
59767;BME280;46248;58.364;25.582;2023-09-08T00:30:24;101702.41;;;10.64;100.00
59767;BME280;46248;58.364;25.582;2023-09-08T00:33:45;101698.97;;;10.62;100.00
59767;BME280;46248;58.364;25.582;2023-09-08T00:37:07;101699.03;;;10.60;100.00
59767;BME280;46248;58.364;25.582;2023-09-08T00:40:30;101699.03;;;10.60;100.00
59767;BME280;46248;58.364;25.582;2023-09-08T00:43:53;101695.59;;;10.58;100.00
59767;BME280;46248;58.364;25.582;2023-09-08T00:47:15;101705.19;;;10.59;100.00
59767;BME280;46248;58.364;25.582;2023-09-08T00:50:38;101707.00;;;10.57;100.00
59767;BME280;46248;58.364;25.582;2023-09-08T00:54:00;101708.78;;;10.57;100.00
59767;BME280;46248;58.364;25.582;2023-09-08T00:57:22;101703.63;;;10.53;100.00
59767;BME280;46248;58.364;25.582;2023-09-08T01:00:44;101696.84;;;10.46;100.00
59767;BME280;46248;58.364;25.582;2023-09-08T01:04:08;101704.56;;;10.51;100.00
59767;BME280;46248;58.364;25.582;2023-09-08T01:07:31;101693.28;;;10.49;100.00
59767;BME280;46248;58.364;25.582;2023-09-08T01:10:53;101693.38;;;10.46;100.00
59767;BME280;46248;58.364;25.582;2023-09-08T01:14:17;101695.25;;;10.42;100.00
59767;BME280;46248;58.364;25.582;2023-09-08T01:17:39;101692.66;;;10.41;100.00
59767;BME280;46248;58.364;25.582;2023-09-08T01:25:18;101677.16;;;10.35;100.00
59767;BME280;46248;58.364;25.582;2023-09-08T01:28:43;101667.75;;;10.29;100.00
59767;BME280;46248;58.364;25.582;2023-09-08T01:32:07;101672.94;;;10.30;100.00
59767;BME280;46248;58.364;25.582;2023-09-08T01:35:30;101680.75;;;10.32;100.00
59767;BME280;46248;58.364;25.582;2023-09-08T01:38:52;101676.38;;;10.32;100.00
59767;BME280;46248;58.364;25.582;2023-09-08T01:42:15;101669.28;;;10.35;100.00
59767;BME280;46248;58.364;25.582;2023-09-08T01:45:37;101670.09;;;10.38;100.00
59767;BME280;46248;58.364;25.582;2023-09-08T01:48:59;101664.75;;;10.41;100.00
59767;BME280;46248;58.364;25.582;2023-09-08T01:52:21;101663.72;;;10.45;100.00
59767;BME280;46248;58.364;25.582;2023-09-08T01:55:43;101662.78;;;10.48;100.00
59767;BME280;46248;58.364;25.582;2023-09-08T01:59:07;101662.50;;;10.55;100.00
59767;BME280;46248;58.364;25.582;2023-09-08T02:02:28;101658.00;;;10.61;100.00
59767;BME280;46248;58.364;25.582;2023-09-08T02:05:50;101653.50;;;10.64;100.00
59767;BME280;46248;58.364;25.582;2023-09-08T02:09:14;101640.19;;;10.70;100.00
59767;BME280;46248;58.364;25.582;2023-09-08T02:12:36;101637.38;;;10.76;100.00
59767;BME280;46248;58.364;25.582;2023-09-08T02:15:59;101633.69;;;10.82;100.00
59767;BME280;46248;58.364;25.582;2023-09-08T02:19:22;101636.16;;;10.87;100.00
59767;BME280;46248;58.364;25.582;2023-09-08T02:22:44;101631.59;;;10.92;100.00
59767;BME280;46248;58.364;25.582;2023-09-08T02:26:08;101632.25;;;10.98;100.00
59767;BME280;46248;58.364;25.582;2023-09-08T02:29:31;101632.09;;;11.03;100.00
59767;BME280;46248;58.364;25.582;2023-09-08T02:32:54;101613.63;;;11.06;100.00
59767;BME280;46248;58.364;25.582;2023-09-08T02:36:17;101609.13;;;11.10;100.00
59767;BME280;46248;58.364;25.582;2023-09-08T02:39:45;101612.56;;;11.12;100.00
59767;BME280;46248;58.364;25.582;2023-09-08T02:43:07;101609.00;;;11.13;100.00
59767;BME280;46248;58.364;25.582;2023-09-08T02:46:29;101608.22;;;11.11;100.00
59767;BME280;46248;58.364;25.582;2023-09-08T02:49:52;101605.50;;;11.14;100.00
59767;BME280;46248;58.364;25.582;2023-09-08T02:53:14;101602.78;;;11.17;100.00
59767;BME280;46248;58.364;25.582;2023-09-08T02:56:35;101602.66;;;11.20;100.00
59767;BME280;46248;58.364;25.582;2023-09-08T02:59:57;101590.28;;;11.23;100.00
59767;BME280;46248;58.364;25.582;2023-09-08T03:03:19;101583.22;;;11.26;100.00
59767;BME280;46248;58.364;25.582;2023-09-08T03:06:43;101558.09;;;11.20;100.00
59767;BME280;46248;58.364;25.582;2023-09-08T03:10:06;101566.38;;;11.31;100.00
59767;BME280;46248;58.364;25.582;2023-09-08T03:13:28;101567.19;;;11.33;100.00
59767;BME280;46248;58.364;25.582;2023-09-08T03:16:50;101554.88;;;11.35;100.00
59767;BME280;46248;58.364;25.582;2023-09-08T03:20:12;101551.41;;;11.35;100.00
59767;BME280;46248;58.364;25.582;2023-09-08T03:23:36;101553.00;;;11.39;100.00
59767;BME280;46248;58.364;25.582;2023-09-08T03:26:58;101553.13;;;11.36;100.00
59767;BME280;46248;58.364;25.582;2023-09-08T03:30:20;101551.34;;;11.36;100.00
59767;BME280;46248;58.364;25.582;2023-09-08T03:33:42;101558.41;;;11.34;100.00
59767;BME280;46248;58.364;25.582;2023-09-08T03:37:03;101561.16;;;11.31;100.00
59767;BME280;46248;58.364;25.582;2023-09-08T03:40:26;101548.03;;;11.31;100.00
59767;BME280;46248;58.364;25.582;2023-09-08T03:43:48;101554.16;;;11.32;100.00
59767;BME280;46248;58.364;25.582;2023-09-08T03:47:10;101554.09;;;11.33;100.00
59767;BME280;46248;58.364;25.582;2023-09-08T03:50:31;101540.06;;;11.34;100.00
59767;BME280;46248;58.364;25.582;2023-09-08T03:53:53;101531.56;;;11.28;100.00
59767;BME280;46248;58.364;25.582;2023-09-08T03:57:17;101546.19;;;11.35;100.00
59767;BME280;46248;58.364;25.582;2023-09-08T04:00:38;101536.53;;;11.35;100.00
59767;BME280;46248;58.364;25.582;2023-09-08T04:04:00;101542.44;;;11.40;100.00
59767;BME280;46248;58.364;25.582;2023-09-08T04:07:22;101545.81;;;11.44;100.00
59767;BME280;46248;58.364;25.582;2023-09-08T04:10:44;101544.69;;;11.50;100.00
59767;BME280;46248;58.364;25.582;2023-09-08T04:14:07;101528.84;;;11.53;100.00
59767;BME280;46248;58.364;25.582;2023-09-08T04:17:28;101517.59;;;11.51;100.00
59767;BME280;46248;58.364;25.582;2023-09-08T04:20:50;101526.75;;;11.62;100.00
59767;BME280;46248;58.364;25.582;2023-09-08T04:24:12;101528.41;;;11.65;100.00
59767;BME280;46248;58.364;25.582;2023-09-08T04:27:34;101516.00;;;11.68;100.00
59767;BME280;46248;58.364;25.582;2023-09-08T04:30:58;101523.44;;;11.79;100.00
59767;BME280;46248;58.364;25.582;2023-09-08T04:34:20;101519.78;;;11.83;100.00
59767;BME280;46248;58.364;25.582;2023-09-08T04:37:41;101518.69;;;11.89;100.00
59767;BME280;46248;58.364;25.582;2023-09-08T04:41:03;101521.13;;;11.94;100.00
59767;BME280;46248;58.364;25.582;2023-09-08T04:44:25;101507.88;;;11.97;100.00
59767;BME280;46248;58.364;25.582;2023-09-08T04:47:48;101508.44;;;12.05;100.00
59767;BME280;46248;58.364;25.582;2023-09-08T04:51:11;101496.88;;;12.09;100.00
59767;BME280;46248;58.364;25.582;2023-09-08T04:54:33;101487.34;;;12.06;100.00
59767;BME280;46248;58.364;25.582;2023-09-08T04:57:55;101509.56;;;12.20;100.00
59767;BME280;46248;58.364;25.582;2023-09-08T05:01:16;101486.84;;;12.19;100.00
59767;BME280;46248;58.364;25.582;2023-09-08T05:04:39;101492.50;;;12.30;100.00
59767;BME280;46248;58.364;25.582;2023-09-08T05:08:01;101485.16;;;12.38;100.00
59767;BME280;46248;58.364;25.582;2023-09-08T05:11:23;101472.50;;;12.46;100.00
59767;BME280;46248;58.364;25.582;2023-09-08T05:14:46;101469.47;;;12.55;100.00
59767;BME280;46248;58.364;25.582;2023-09-08T05:18:08;101465.53;;;12.66;100.00
59767;BME280;46248;58.364;25.582;2023-09-08T05:21:32;101466.97;;;12.73;100.00
59767;BME280;46248;58.364;25.582;2023-09-08T05:24:54;101478.03;;;12.79;100.00
59767;BME280;46248;58.364;25.582;2023-09-08T05:28:16;101474.56;;;12.79;100.00
59767;BME280;46248;58.364;25.582;2023-09-08T05:31:38;101477.44;;;12.93;100.00
59767;BME280;46248;58.364;25.582;2023-09-08T05:35:00;101472.69;;;13.01;100.00
59767;BME280;46248;58.364;25.582;2023-09-08T05:38:24;101459.94;;;13.11;100.00
59767;BME280;46248;58.364;25.582;2023-09-08T05:41:48;101469.84;;;13.25;100.00
59767;BME280;46248;58.364;25.582;2023-09-08T05:45:10;101467.72;;;13.33;100.00
59767;BME280;46248;58.364;25.582;2023-09-08T05:48:32;101461.34;;;13.37;100.00
59767;BME280;46248;58.364;25.582;2023-09-08T05:51:54;101459.78;;;13.52;100.00
59767;BME280;46248;58.364;25.582;2023-09-08T05:55:17;101451.41;;;13.80;100.00
59767;BME280;46248;58.364;25.582;2023-09-08T05:58:39;101457.38;;;14.01;100.00
59767;BME280;46248;58.364;25.582;2023-09-08T06:02:00;101448.03;;;14.29;100.00
59767;BME280;46248;58.364;25.582;2023-09-08T06:05:22;101447.09;;;14.47;100.00
59767;BME280;46248;58.364;25.582;2023-09-08T06:08:44;101450.41;;;14.51;100.00
59767;BME280;46248;58.364;25.582;2023-09-08T06:12:07;101444.44;;;14.47;100.00
59767;BME280;46248;58.364;25.582;2023-09-08T06:15:29;101440.69;;;14.53;100.00
59767;BME280;46248;58.364;25.582;2023-09-08T06:18:51;101434.31;;;14.73;100.00
59767;BME280;46248;58.364;25.582;2023-09-08T06:22:13;101430.50;;;14.94;100.00
59767;BME280;46248;58.364;25.582;2023-09-08T06:25:35;101426.50;;;15.19;100.00
59767;BME280;46248;58.364;25.582;2023-09-08T06:28:58;101420.13;;;15.39;100.00
59767;BME280;46248;58.364;25.582;2023-09-08T06:32:20;101410.88;;;15.62;100.00
59767;BME280;46248;58.364;25.582;2023-09-08T06:35:41;101408.28;;;15.76;100.00
59767;BME280;46248;58.364;25.582;2023-09-08T06:39:03;101404.19;;;16.00;100.00
59767;BME280;46248;58.364;25.582;2023-09-08T06:42:25;101404.59;;;16.09;100.00
59767;BME280;46248;58.364;25.582;2023-09-08T06:45:49;101399.34;;;16.23;100.00
59767;BME280;46248;58.364;25.582;2023-09-08T06:49:11;101401.50;;;16.45;100.00
59767;BME280;46248;58.364;25.582;2023-09-08T06:52:33;101402.81;;;16.66;100.00
59767;BME280;46248;58.364;25.582;2023-09-08T06:55:54;101396.19;;;16.88;100.00
59767;BME280;46248;58.364;25.582;2023-09-08T06:59:16;101398.75;;;16.89;100.00
59767;BME280;46248;58.364;25.582;2023-09-08T07:02:40;101404.81;;;16.91;100.00
59767;BME280;46248;58.364;25.582;2023-09-08T07:06:02;101399.72;;;16.88;100.00
59767;BME280;46248;58.364;25.582;2023-09-08T07:09:24;101396.31;;;16.86;100.00
59767;BME280;46248;58.364;25.582;2023-09-08T07:12:46;101391.84;;;16.87;100.00
59767;BME280;46248;58.364;25.582;2023-09-08T07:16:08;101386.09;;;16.94;100.00
59767;BME280;46248;58.364;25.582;2023-09-08T07:19:31;101382.66;;;17.07;100.00
59767;BME280;46248;58.364;25.582;2023-09-08T07:22:53;101369.91;;;17.26;100.00
59767;BME280;46248;58.364;25.582;2023-09-08T07:26:16;101378.84;;;17.38;100.00
59767;BME280;46248;58.364;25.582;2023-09-08T07:29:38;101374.78;;;17.32;100.00
59767;BME280;46248;58.364;25.582;2023-09-08T07:33:00;101377.66;;;17.29;100.00
59767;BME280;46248;58.364;25.582;2023-09-08T07:36:23;101369.22;;;17.37;100.00
59767;BME280;46248;58.364;25.582;2023-09-08T07:39:46;101377.69;;;17.55;100.00
59767;BME280;46248;58.364;25.582;2023-09-08T07:43:07;101366.72;;;17.61;100.00
59767;BME280;46248;58.364;25.582;2023-09-08T07:46:29;101369.06;;;17.66;100.00
59767;BME280;46248;58.364;25.582;2023-09-08T07:49:51;101360.13;;;17.67;100.00
59767;BME280;46248;58.364;25.582;2023-09-08T07:53:14;101358.41;;;17.80;100.00
59767;BME280;46248;58.364;25.582;2023-09-08T07:56:35;101359.25;;;17.93;100.00
59767;BME280;46248;58.364;25.582;2023-09-08T07:59:57;101354.78;;;17.94;100.00
59767;BME280;46248;58.364;25.582;2023-09-08T08:03:19;101358.19;;;17.96;100.00
59767;BME280;46248;58.364;25.582;2023-09-08T08:06:41;101350.56;;;17.91;100.00
59767;BME280;46248;58.364;25.582;2023-09-08T08:10:06;101351.09;;;17.96;100.00
59767;BME280;46248;58.364;25.582;2023-09-08T08:13:28;101358.94;;;17.98;100.00
59767;BME280;46248;58.364;25.582;2023-09-08T08:16:50;101355.25;;;18.00;100.00
59767;BME280;46248;58.364;25.582;2023-09-08T08:20:12;101352.59;;;18.13;100.00
59767;BME280;46248;58.364;25.582;2023-09-08T08:23:39;101343.44;;;18.30;100.00
59767;BME280;46248;58.364;25.582;2023-09-08T08:27:02;101346.09;;;18.43;100.00
59767;BME280;46248;58.364;25.582;2023-09-08T08:30:24;101335.34;;;18.44;100.00
59767;BME280;46248;58.364;25.582;2023-09-08T08:33:46;101343.63;;;18.52;100.00
59767;BME280;46248;58.364;25.582;2023-09-08T08:37:08;101341.06;;;18.51;100.00
59767;BME280;46248;58.364;25.582;2023-09-08T08:40:38;101339.81;;;18.44;100.00
59767;BME280;46248;58.364;25.582;2023-09-08T08:44:01;101343.97;;;18.35;100.00
59767;BME280;46248;58.364;25.582;2023-09-08T08:47:24;101337.28;;;18.29;100.00
59767;BME280;46248;58.364;25.582;2023-09-08T08:50:47;101332.91;;;18.41;100.00
59767;BME280;46248;58.364;25.582;2023-09-08T08:54:10;101321.78;;;18.49;100.00
59767;BME280;46248;58.364;25.582;2023-09-08T08:57:32;101320.91;;;18.61;100.00
59767;BME280;46248;58.364;25.582;2023-09-08T09:00:57;101319.06;;;18.74;100.00
59767;BME280;46248;58.364;25.582;2023-09-08T09:04:21;101311.72;;;18.78;100.00
59767;BME280;46248;58.364;25.582;2023-09-08T09:07:43;101310.19;;;18.87;100.00
59767;BME280;46248;58.364;25.582;2023-09-08T09:11:05;101306.34;;;18.91;100.00
59767;BME280;46248;58.364;25.582;2023-09-08T09:14:27;101313.03;;;18.96;100.00
59767;BME280;46248;58.364;25.582;2023-09-08T09:18:01;101304.22;;;18.96;100.00
59767;BME280;46248;58.364;25.582;2023-09-08T09:21:24;101298.91;;;18.96;100.00
59767;BME280;46248;58.364;25.582;2023-09-08T09:24:46;101298.13;;;19.07;100.00
59767;BME280;46248;58.364;25.582;2023-09-08T09:28:09;101294.66;;;19.17;100.00
59767;BME280;46248;58.364;25.582;2023-09-08T09:31:30;101297.22;;;19.19;100.00
59767;BME280;46248;58.364;25.582;2023-09-08T09:34:54;101285.84;;;19.17;100.00
59767;BME280;46248;58.364;25.582;2023-09-08T09:38:18;101288.13;;;19.10;100.00
59767;BME280;46248;58.364;25.582;2023-09-08T09:41:41;101290.72;;;18.99;100.00
59767;BME280;46248;58.364;25.582;2023-09-08T09:45:03;101290.88;;;18.85;100.00
59767;BME280;46248;58.364;25.582;2023-09-08T09:48:25;101297.97;;;18.73;100.00
59767;BME280;46248;58.364;25.582;2023-09-08T09:51:53;101299.22;;;18.67;100.00
59767;BME280;46248;58.364;25.582;2023-09-08T09:55:16;101296.16;;;18.61;100.00
59767;BME280;46248;58.364;25.582;2023-09-08T09:58:38;101299.16;;;18.56;100.00
59767;BME280;46248;58.364;25.582;2023-09-08T10:02:01;101296.94;;;18.50;100.00
59767;BME280;46248;58.364;25.582;2023-09-08T10:05:24;101300.34;;;18.39;100.00
59767;BME280;46248;58.364;25.582;2023-09-08T10:08:47;101291.91;;;18.34;100.00
59767;BME280;46248;58.364;25.582;2023-09-08T10:12:13;101293.06;;;18.30;100.00
59767;BME280;46248;58.364;25.582;2023-09-08T10:15:37;101295.09;;;18.26;100.00
59767;BME280;46248;58.364;25.582;2023-09-08T10:19:00;101297.34;;;18.20;100.00
59767;BME280;46248;58.364;25.582;2023-09-08T10:22:26;101297.22;;;18.21;100.00
59767;BME280;46248;58.364;25.582;2023-09-08T10:25:55;101297.22;;;18.21;100.00
59767;BME280;46248;58.364;25.582;2023-09-08T10:29:22;101292.13;;;18.18;100.00
59767;BME280;46248;58.364;25.582;2023-09-08T10:32:45;101300.06;;;18.18;100.00
59767;BME280;46248;58.364;25.582;2023-09-08T10:36:08;101284.38;;;18.15;100.00
59767;BME280;46248;58.364;25.582;2023-09-08T10:39:31;101288.84;;;18.15;100.00
59767;BME280;46248;58.364;25.582;2023-09-08T10:43:07;101285.34;;;18.14;100.00
59767;BME280;46248;58.364;25.582;2023-09-08T10:46:31;101276.03;;;18.08;100.00
59767;BME280;46248;58.364;25.582;2023-09-08T10:49:53;101282.94;;;17.98;100.00
59767;BME280;46248;58.364;25.582;2023-09-08T10:53:20;101286.97;;;17.91;100.00
59767;BME280;46248;58.364;25.582;2023-09-08T10:56:54;101279.00;;;17.91;100.00
59767;BME280;46248;58.364;25.582;2023-09-08T11:00:19;101285.63;;;17.85;100.00
59767;BME280;46248;58.364;25.582;2023-09-08T11:03:45;101277.66;;;17.85;100.00
59767;BME280;46248;58.364;25.582;2023-09-08T11:07:10;101271.16;;;17.77;100.00
59767;BME280;46248;58.364;25.582;2023-09-08T11:10:32;101272.22;;;17.74;100.00
59767;BME280;46248;58.364;25.582;2023-09-08T11:13:55;101274.13;;;17.72;100.00
59767;BME280;46248;58.364;25.582;2023-09-08T11:17:25;101273.06;;;17.75;100.00
59767;BME280;46248;58.364;25.582;2023-09-08T11:20:51;101272.66;;;17.81;100.00
59767;BME280;46248;58.364;25.582;2023-09-08T11:24:14;101269.06;;;17.82;100.00
59767;BME280;46248;58.364;25.582;2023-09-08T11:27:35;101268.84;;;17.85;100.00
59767;BME280;46248;58.364;25.582;2023-09-08T11:30:59;101271.50;;;17.85;100.00
59767;BME280;46248;58.364;25.582;2023-09-08T11:34:22;101280.19;;;17.87;100.00
59767;BME280;46248;58.364;25.582;2023-09-08T11:37:44;101272.47;;;17.84;100.00
59767;BME280;46248;58.364;25.582;2023-09-08T11:41:06;101271.72;;;17.82;100.00
59767;BME280;46248;58.364;25.582;2023-09-08T11:44:28;101268.97;;;17.83;100.00
59767;BME280;46248;58.364;25.582;2023-09-08T11:47:52;101268.63;;;17.88;100.00
59767;BME280;46248;58.364;25.582;2023-09-08T11:51:15;101262.28;;;17.91;100.00
59767;BME280;46248;58.364;25.582;2023-09-08T11:54:37;101259.41;;;17.94;100.00
59767;BME280;46248;58.364;25.582;2023-09-08T11:58:20;101266.09;;;17.99;100.00
59767;BME280;46248;58.364;25.582;2023-09-08T12:01:42;101264.94;;;18.03;100.00
59767;BME280;46248;58.364;25.582;2023-09-08T12:05:04;101265.25;;;17.99;100.00
59767;BME280;46248;58.364;25.582;2023-09-08T12:08:27;101268.00;;;17.97;100.00
59767;BME280;46248;58.364;25.582;2023-09-08T12:11:50;101262.81;;;17.96;100.00
59767;BME280;46248;58.364;25.582;2023-09-08T12:15:11;101258.56;;;17.93;100.00
59767;BME280;46248;58.364;25.582;2023-09-08T12:18:40;101270.22;;;17.91;100.00
59767;BME280;46248;58.364;25.582;2023-09-08T12:22:04;101253.28;;;17.80;100.00
59767;BME280;46248;58.364;25.582;2023-09-08T12:25:29;101257.94;;;17.77;100.00
59767;BME280;46248;58.364;25.582;2023-09-08T12:28:53;101256.34;;;17.74;100.00
59767;BME280;46248;58.364;25.582;2023-09-08T12:32:16;101252.44;;;17.67;100.00
59767;BME280;46248;58.364;25.582;2023-09-08T12:35:38;101257.81;;;17.66;100.00
59767;BME280;46248;58.364;25.582;2023-09-08T12:38:59;101256.22;;;17.63;100.00
59767;BME280;46248;58.364;25.582;2023-09-08T12:42:23;101254.00;;;17.70;100.00
59767;BME280;46248;58.364;25.582;2023-09-08T12:45:46;101253.38;;;17.79;100.00
59767;BME280;46248;58.364;25.582;2023-09-08T12:49:08;101259.13;;;17.85;100.00
59767;BME280;46248;58.364;25.582;2023-09-08T12:52:30;101255.81;;;17.95;100.00
59767;BME280;46248;58.364;25.582;2023-09-08T12:55:52;101248.06;;;18.04;100.00
59767;BME280;46248;58.364;25.582;2023-09-08T12:59:15;101248.16;;;18.16;100.00
59767;BME280;46248;58.364;25.582;2023-09-08T13:02:37;101241.53;;;18.21;100.00
59767;BME280;46248;58.364;25.582;2023-09-08T13:05:58;101243.00;;;18.38;100.00
59767;BME280;46248;58.364;25.582;2023-09-08T13:09:20;101233.81;;;18.55;100.00
59767;BME280;46248;58.364;25.582;2023-09-08T13:12:42;101238.09;;;18.69;100.00
59767;BME280;46248;58.364;25.582;2023-09-08T13:16:05;101232.25;;;18.76;100.00
59767;BME280;46248;58.364;25.582;2023-09-08T13:19:27;101229.47;;;18.78;100.00
59767;BME280;46248;58.364;25.582;2023-09-08T13:22:49;101231.66;;;18.84;100.00
59767;BME280;46248;58.364;25.582;2023-09-08T13:26:11;101223.38;;;18.89;100.00
59767;BME280;46248;58.364;25.582;2023-09-08T13:29:33;101230.97;;;18.93;100.00
59767;BME280;46248;58.364;25.582;2023-09-08T13:32:56;101223.03;;;18.93;100.00
59767;BME280;46248;58.364;25.582;2023-09-08T13:36:17;101228.31;;;18.93;100.00
59767;BME280;46248;58.364;25.582;2023-09-08T13:39:39;101229.91;;;18.96;100.00
59767;BME280;46248;58.364;25.582;2023-09-08T13:43:01;101231.63;;;19.08;100.00
59767;BME280;46248;58.364;25.582;2023-09-08T13:46:23;101232.75;;;19.17;100.00
59767;BME280;46248;58.364;25.582;2023-09-08T13:49:46;101234.47;;;19.29;100.00
59767;BME280;46248;58.364;25.582;2023-09-08T13:53:08;101233.19;;;19.46;100.00
59767;BME280;46248;58.364;25.582;2023-09-08T13:56:30;101235.59;;;19.60;100.00
59767;BME280;46248;58.364;25.582;2023-09-08T13:59:53;101229.13;;;19.64;100.00
59767;BME280;46248;58.364;25.582;2023-09-08T14:03:17;101231.78;;;19.64;100.00
59767;BME280;46248;58.364;25.582;2023-09-08T14:06:43;101217.53;;;19.65;100.00
59767;BME280;46248;58.364;25.582;2023-09-08T14:10:10;101213.16;;;19.76;100.00
59767;BME280;46248;58.364;25.582;2023-09-08T14:13:35;101215.97;;;19.74;100.00
59767;BME280;46248;58.364;25.582;2023-09-08T14:16:57;101219.59;;;19.73;100.00
59767;BME280;46248;58.364;25.582;2023-09-08T14:20:19;101218.47;;;19.76;100.00
59767;BME280;46248;58.364;25.582;2023-09-08T14:23:42;101221.63;;;19.81;100.00
59767;BME280;46248;58.364;25.582;2023-09-08T14:27:04;101225.03;;;19.83;100.00
59767;BME280;46248;58.364;25.582;2023-09-08T14:30:25;101222.59;;;19.80;100.00
59767;BME280;46248;58.364;25.582;2023-09-08T14:33:47;101205.44;;;19.61;100.00
59767;BME280;46248;58.364;25.582;2023-09-08T14:37:09;101219.34;;;19.76;100.00
59767;BME280;46248;58.364;25.582;2023-09-08T14:40:33;101220.28;;;19.75;100.00
59767;BME280;46248;58.364;25.582;2023-09-08T14:43:54;101221.88;;;19.78;100.00
59767;BME280;46248;58.364;25.582;2023-09-08T14:47:16;101222.72;;;19.78;100.00
59767;BME280;46248;58.364;25.582;2023-09-08T14:50:38;101225.38;;;19.78;100.00
59767;BME280;46248;58.364;25.582;2023-09-08T14:54:00;101229.75;;;19.79;100.00
59767;BME280;46248;58.364;25.582;2023-09-08T14:57:23;101222.84;;;19.77;100.00
59767;BME280;46248;58.364;25.582;2023-09-08T15:00:46;101222.00;;;19.76;100.00
59767;BME280;46248;58.364;25.582;2023-09-08T15:04:08;101215.22;;;19.72;100.00
59767;BME280;46248;58.364;25.582;2023-09-08T15:07:30;101222.34;;;19.72;100.00
59767;BME280;46248;58.364;25.582;2023-09-08T15:10:51;101212.69;;;19.71;100.00
59767;BME280;46248;58.364;25.582;2023-09-08T15:14:15;101218.72;;;19.73;100.00
59767;BME280;46248;58.364;25.582;2023-09-08T15:17:36;101211.72;;;19.72;100.00
59767;BME280;46248;58.364;25.582;2023-09-08T15:20:58;101214.63;;;19.68;100.00
59767;BME280;46248;58.364;25.582;2023-09-08T15:24:20;101220.91;;;19.67;100.00
59767;BME280;46248;58.364;25.582;2023-09-08T15:27:42;101207.00;;;19.64;100.00
59767;BME280;46248;58.364;25.582;2023-09-08T15:31:07;101207.88;;;19.64;100.00
59767;BME280;46248;58.364;25.582;2023-09-08T15:34:28;101205.81;;;19.68;100.00
59767;BME280;46248;58.364;25.582;2023-09-08T15:37:50;101211.63;;;19.73;100.00
59767;BME280;46248;58.364;25.582;2023-09-08T15:41:16;101208.34;;;19.70;100.00
59767;BME280;46248;58.364;25.582;2023-09-08T15:44:38;101218.56;;;19.63;100.00
59767;BME280;46248;58.364;25.582;2023-09-08T15:48:01;101207.88;;;19.64;100.00
59767;BME280;46248;58.364;25.582;2023-09-08T15:51:23;101203.47;;;19.63;100.00
59767;BME280;46248;58.364;25.582;2023-09-08T15:54:45;101203.41;;;19.65;100.00
59767;BME280;46248;58.364;25.582;2023-09-08T15:58:07;101207.63;;;19.67;100.00
59767;BME280;46248;58.364;25.582;2023-09-08T16:01:28;101206.66;;;19.68;100.00
59767;BME280;46248;58.364;25.582;2023-09-08T16:04:52;101205.91;;;19.66;100.00
59767;BME280;46248;58.364;25.582;2023-09-08T16:08:17;101216.88;;;19.62;100.00
59767;BME280;46248;58.364;25.582;2023-09-08T16:11:38;101204.94;;;19.56;100.00
59767;BME280;46248;58.364;25.582;2023-09-08T16:15:00;101208.91;;;19.51;100.00
59767;BME280;46248;58.364;25.582;2023-09-08T16:18:22;101209.38;;;19.44;100.00
59767;BME280;46248;58.364;25.582;2023-09-08T16:21:46;101208.88;;;19.39;100.00
59767;BME280;46248;58.364;25.582;2023-09-08T16:25:08;101205.63;;;19.25;100.00
59767;BME280;46248;58.364;25.582;2023-09-08T16:28:30;101212.72;;;19.13;100.00
59767;BME280;46248;58.364;25.582;2023-09-08T16:31:52;101200.47;;;18.99;100.00
59767;BME280;46248;58.364;25.582;2023-09-08T16:35:14;101212.91;;;18.98;100.00
59767;BME280;46248;58.364;25.582;2023-09-08T16:38:37;101213.38;;;18.92;100.00
59767;BME280;46248;58.364;25.582;2023-09-08T16:41:59;101209.59;;;18.84;100.00
59767;BME280;46248;58.364;25.582;2023-09-08T16:45:21;101209.22;;;18.77;100.00
59767;BME280;46248;58.364;25.582;2023-09-08T16:48:43;101209.75;;;18.69;100.00
59767;BME280;46248;58.364;25.582;2023-09-08T16:52:05;101206.94;;;18.60;100.00
59767;BME280;46248;58.364;25.582;2023-09-08T16:55:28;101213.53;;;18.54;100.00
59767;BME280;46248;58.364;25.582;2023-09-08T16:58:49;101211.56;;;18.45;100.00
59767;BME280;46248;58.364;25.582;2023-09-08T17:02:12;101212.97;;;18.38;100.00
59767;BME280;46248;58.364;25.582;2023-09-08T17:05:33;101205.94;;;18.25;100.00
59767;BME280;46248;58.364;25.582;2023-09-08T17:08:55;101214.31;;;18.19;100.00
59767;BME280;46248;58.364;25.582;2023-09-08T17:12:18;101212.94;;;18.14;100.00
59767;BME280;46248;58.364;25.582;2023-09-08T17:15:40;101211.72;;;18.06;100.00